Waterford, CT

5:19 PM EST on December 26, 2014 (GMT -0500)
Jordan Village | Change Station
CLOSE
Current Station
Personal Weather Station
Location: Waterford, CT
Elevation: 75 ft
Nearby Weather Stations

Elev 75 ft 41.35 °N, 72.13 °W | Updated 0 second ago

Clear
Clear
42.3 °F
Feels Like 40 °F
N
4.0
Wind Variable Wind from West
Gusts 5.0 mph

Today
High -- | Low -- °F
--% Chance of Precip.
Yesterday
High -- | Low -- °F
Precip. -- in
7:13 AM 4:25 PM
Waxing Crescent, 29% visible
Pressure 30.16 in
Visibility 8.0 miles
Clouds Clear
Windchill 40 °F
Dew Point 29 °F
Humidity 60%
Rainfall 0.00 in
Snow Depth Not available.
UV 0 out of 12
Pollen .10 out of 12
Air Quality Not available.
Flu Activity Not available.
METAR KGON 262156Z 26009KT 8SM CLR 06/02 A3016 RMK AO2 SLP213 T00560017

More Conditions Fewer Conditions

Pressure 30.16 in
Visibility 8.0 miles
Clouds Clear
Windchill 40 °F
Dew Point 29 °F
Humidity 60%
Rainfall 0.00 in
Snow Depth Not available.
UV 0 out of 12
Pollen .10 out of 12
Air Quality Not available.
Flu Activity Not available.
METAR KGON 262156Z 26009KT 8SM CLR 06/02 A3016 RMK AO2 SLP213 T00560017

More Conditions Fewer Conditions

10-Day Weather Forecast

Almanac

Astronomy

Dec. 26, 2014 Rise Set
Actual Time
Civil Twilight
Nautical Twilight
Astronomical Twilight
Moon
Length of Visible Light
Length of Day
Tomorrow will be .
, % of the Moon is Illuminated

Today's Extremes

State Highs State Lows

Community

WunderPhotos

Upload Photos

1,780,735 photos uploaded!

WunderBlogs® & News

Nearby

Air Quality

  Air Quality AQ Index Pollutant
Not available.

Snow Depth

Station Depth Elevation

Earthquake Activity

City Distance Mag. Time & Date
Minimum magnitude displayed is 2.5.

Coastal Water Temperatures

Place Temperature

Nearby Weather Stations